sensor_id;sensor_type;location;lat;lon;timestamp;temperature;humidity
820;DHT22;392;48.838;2.322;2023-05-13T00:00:38;14.60;63.80
820;DHT22;392;48.838;2.322;2023-05-13T00:03:05;14.60;63.80
820;DHT22;392;48.838;2.322;2023-05-13T00:05:32;14.60;63.60
820;DHT22;392;48.838;2.322;2023-05-13T00:08:01;14.60;63.60
820;DHT22;392;48.838;2.322;2023-05-13T00:10:31;14.70;63.60
820;DHT22;392;48.838;2.322;2023-05-13T00:12:59;14.70;63.40
820;DHT22;392;48.838;2.322;2023-05-13T00:15:27;14.70;63.20
820;DHT22;392;48.838;2.322;2023-05-13T00:17:54;14.70;62.70
820;DHT22;392;48.838;2.322;2023-05-13T00:20:22;14.70;62.70
820;DHT22;392;48.838;2.322;2023-05-13T00:22:49;14.70;63.10
820;DHT22;392;48.838;2.322;2023-05-13T00:25:18;14.70;63.40
820;DHT22;392;48.838;2.322;2023-05-13T00:27:45;14.60;63.60
820;DHT22;392;48.838;2.322;2023-05-13T00:30:12;14.60;63.80
820;DHT22;392;48.838;2.322;2023-05-13T00:32:40;14.60;64.00
820;DHT22;392;48.838;2.322;2023-05-13T00:35:08;14.60;64.20
820;DHT22;392;48.838;2.322;2023-05-13T00:37:36;14.60;64.60
820;DHT22;392;48.838;2.322;2023-05-13T00:40:04;14.60;64.80
820;DHT22;392;48.838;2.322;2023-05-13T00:42:33;14.60;65.20
820;DHT22;392;48.838;2.322;2023-05-13T00:45:01;14.60;65.60
820;DHT22;392;48.838;2.322;2023-05-13T00:47:28;14.60;65.80
820;DHT22;392;48.838;2.322;2023-05-13T00:49:56;14.50;65.60
820;DHT22;392;48.838;2.322;2023-05-13T00:52:24;14.50;65.90
820;DHT22;392;48.838;2.322;2023-05-13T00:54:51;14.50;66.10
820;DHT22;392;48.838;2.322;2023-05-13T00:57:18;14.50;66.30
820;DHT22;392;48.838;2.322;2023-05-13T00:59:47;14.50;66.40
820;DHT22;392;48.838;2.322;2023-05-13T01:02:24;14.40;66.80
820;DHT22;392;48.838;2.322;2023-05-13T01:05:07;14.40;67.00
820;DHT22;392;48.838;2.322;2023-05-13T01:07:43;14.40;67.60
820;DHT22;392;48.838;2.322;2023-05-13T01:10:20;14.40;68.00
820;DHT22;392;48.838;2.322;2023-05-13T01:12:54;14.40;68.20
820;DHT22;392;48.838;2.322;2023-05-13T01:15:26;14.40;68.70
820;DHT22;392;48.838;2.322;2023-05-13T01:17:57;14.40;69.00
820;DHT22;392;48.838;2.322;2023-05-13T01:20:29;14.40;69.10
820;DHT22;392;48.838;2.322;2023-05-13T01:22:58;14.40;69.60
820;DHT22;392;48.838;2.322;2023-05-13T01:25:25;14.40;69.80
820;DHT22;392;48.838;2.322;2023-05-13T01:27:53;14.40;69.80
820;DHT22;392;48.838;2.322;2023-05-13T01:30:21;14.40;70.30
820;DHT22;392;48.838;2.322;2023-05-13T01:32:49;14.40;69.80
820;DHT22;392;48.838;2.322;2023-05-13T01:35:18;14.40;70.30
820;DHT22;392;48.838;2.322;2023-05-13T01:37:47;14.40;70.70
820;DHT22;392;48.838;2.322;2023-05-13T01:40:18;14.40;71.00
820;DHT22;392;48.838;2.322;2023-05-13T01:42:45;14.40;71.20
820;DHT22;392;48.838;2.322;2023-05-13T01:45:13;14.40;71.60
820;DHT22;392;48.838;2.322;2023-05-13T01:47:40;14.40;71.60
820;DHT22;392;48.838;2.322;2023-05-13T01:50:08;14.40;71.60
820;DHT22;392;48.838;2.322;2023-05-13T01:52:36;14.40;71.60
820;DHT22;392;48.838;2.322;2023-05-13T01:55:04;14.30;71.50
820;DHT22;392;48.838;2.322;2023-05-13T01:57:34;14.30;71.50
820;DHT22;392;48.838;2.322;2023-05-13T02:00:01;14.30;72.20
820;DHT22;392;48.838;2.322;2023-05-13T02:02:40;14.30;72.40
820;DHT22;392;48.838;2.322;2023-05-13T02:05:08;14.30;72.40
820;DHT22;392;48.838;2.322;2023-05-13T02:07:36;14.30;72.60
820;DHT22;392;48.838;2.322;2023-05-13T02:10:04;14.20;73.10
820;DHT22;392;48.838;2.322;2023-05-13T02:12:32;14.20;73.30
820;DHT22;392;48.838;2.322;2023-05-13T02:15:03;14.20;73.70
820;DHT22;392;48.838;2.322;2023-05-13T02:17:31;14.20;74.00
820;DHT22;392;48.838;2.322;2023-05-13T02:19:59;14.20;74.10
820;DHT22;392;48.838;2.322;2023-05-13T02:22:26;14.20;74.40
820;DHT22;392;48.838;2.322;2023-05-13T02:24:53;14.20;74.30
820;DHT22;392;48.838;2.322;2023-05-13T02:27:21;14.20;74.30
820;DHT22;392;48.838;2.322;2023-05-13T02:29:50;14.30;74.40
820;DHT22;392;48.838;2.322;2023-05-13T02:32:17;14.30;74.20
820;DHT22;392;48.838;2.322;2023-05-13T02:34:44;14.30;74.10
820;DHT22;392;48.838;2.322;2023-05-13T02:37:11;14.30;74.30
820;DHT22;392;48.838;2.322;2023-05-13T02:39:47;14.30;74.40
820;DHT22;392;48.838;2.322;2023-05-13T02:42:15;14.30;74.40
820;DHT22;392;48.838;2.322;2023-05-13T02:44:42;14.30;74.40
820;DHT22;392;48.838;2.322;2023-05-13T02:47:13;14.30;74.40
820;DHT22;392;48.838;2.322;2023-05-13T02:49:40;14.40;74.50
820;DHT22;392;48.838;2.322;2023-05-13T02:52:08;14.40;74.00
820;DHT22;392;48.838;2.322;2023-05-13T02:54:36;14.40;73.90
820;DHT22;392;48.838;2.322;2023-05-13T02:57:04;14.40;74.30
820;DHT22;392;48.838;2.322;2023-05-13T02:59:31;14.40;74.30
820;DHT22;392;48.838;2.322;2023-05-13T03:01:59;14.40;74.40
820;DHT22;392;48.838;2.322;2023-05-13T03:04:28;14.40;74.00
820;DHT22;392;48.838;2.322;2023-05-13T03:06:55;14.40;73.90
820;DHT22;392;48.838;2.322;2023-05-13T03:09:23;14.40;73.70
820;DHT22;392;48.838;2.322;2023-05-13T03:11:50;14.40;73.70
820;DHT22;392;48.838;2.322;2023-05-13T03:14:17;14.40;73.50
820;DHT22;392;48.838;2.322;2023-05-13T03:16:45;14.40;73.40
820;DHT22;392;48.838;2.322;2023-05-13T03:19:13;14.40;73.20
820;DHT22;392;48.838;2.322;2023-05-13T03:21:42;14.40;73.10
820;DHT22;392;48.838;2.322;2023-05-13T03:24:13;14.40;73.40
820;DHT22;392;48.838;2.322;2023-05-13T03:26:40;14.40;73.30
820;DHT22;392;48.838;2.322;2023-05-13T03:29:08;14.40;73.10
820;DHT22;392;48.838;2.322;2023-05-13T03:31:36;14.40;73.00
820;DHT22;392;48.838;2.322;2023-05-13T03:34:05;14.40;73.00
820;DHT22;392;48.838;2.322;2023-05-13T03:36:32;14.40;73.00
820;DHT22;392;48.838;2.322;2023-05-13T03:39:01;14.40;72.70
820;DHT22;392;48.838;2.322;2023-05-13T03:41:29;14.40;72.90
820;DHT22;392;48.838;2.322;2023-05-13T03:43:58;14.40;73.10
820;DHT22;392;48.838;2.322;2023-05-13T03:46:27;14.40;73.30
820;DHT22;392;48.838;2.322;2023-05-13T03:48:55;14.30;73.50
820;DHT22;392;48.838;2.322;2023-05-13T03:51:24;14.30;73.80
820;DHT22;392;48.838;2.322;2023-05-13T03:53:51;14.30;74.20
820;DHT22;392;48.838;2.322;2023-05-13T03:56:20;14.30;74.80
820;DHT22;392;48.838;2.322;2023-05-13T03:58:47;14.30;75.60
820;DHT22;392;48.838;2.322;2023-05-13T04:01:14;14.30;75.90
820;DHT22;392;48.838;2.322;2023-05-13T04:03:42;14.20;75.80
820;DHT22;392;48.838;2.322;2023-05-13T04:06:11;14.20;76.40
820;DHT22;392;48.838;2.322;2023-05-13T04:08:39;14.20;77.00
820;DHT22;392;48.838;2.322;2023-05-13T04:11:06;14.20;77.40
820;DHT22;392;48.838;2.322;2023-05-13T04:13:35;14.20;77.80
820;DHT22;392;48.838;2.322;2023-05-13T04:16:02;14.20;78.10
820;DHT22;392;48.838;2.322;2023-05-13T04:18:32;14.20;78.60
820;DHT22;392;48.838;2.322;2023-05-13T04:21:05;14.20;78.80
820;DHT22;392;48.838;2.322;2023-05-13T04:23:32;14.20;78.70
820;DHT22;392;48.838;2.322;2023-05-13T04:26:00;14.20;78.80
820;DHT22;392;48.838;2.322;2023-05-13T04:28:28;14.20;78.80
820;DHT22;392;48.838;2.322;2023-05-13T04:30:58;14.20;79.20
820;DHT22;392;48.838;2.322;2023-05-13T04:33:25;14.20;79.30
820;DHT22;392;48.838;2.322;2023-05-13T04:35:52;14.20;79.20
820;DHT22;392;48.838;2.322;2023-05-13T04:38:21;14.20;79.30
820;DHT22;392;48.838;2.322;2023-05-13T04:40:48;14.20;79.20
820;DHT22;392;48.838;2.322;2023-05-13T04:43:21;14.20;79.70
820;DHT22;392;48.838;2.322;2023-05-13T04:45:55;14.30;78.80
820;DHT22;392;48.838;2.322;2023-05-13T04:48:23;14.30;78.50
820;DHT22;392;48.838;2.322;2023-05-13T04:50:53;14.30;77.80
820;DHT22;392;48.838;2.322;2023-05-13T04:53:21;14.40;77.20
820;DHT22;392;48.838;2.322;2023-05-13T04:55:48;14.30;76.30
820;DHT22;392;48.838;2.322;2023-05-13T04:58:17;14.30;75.90
820;DHT22;392;48.838;2.322;2023-05-13T05:00:44;14.30;75.90
820;DHT22;392;48.838;2.322;2023-05-13T05:03:12;14.30;75.90
820;DHT22;392;48.838;2.322;2023-05-13T05:05:41;14.40;76.30
820;DHT22;392;48.838;2.322;2023-05-13T05:08:09;14.40;76.10
820;DHT22;392;48.838;2.322;2023-05-13T05:10:36;14.40;76.00
820;DHT22;392;48.838;2.322;2023-05-13T05:13:05;14.50;75.40
820;DHT22;392;48.838;2.322;2023-05-13T05:15:32;14.50;74.50
820;DHT22;392;48.838;2.322;2023-05-13T05:18:01;14.60;73.90
820;DHT22;392;48.838;2.322;2023-05-13T05:20:29;14.70;73.40
820;DHT22;392;48.838;2.322;2023-05-13T05:23:00;14.80;72.60
820;DHT22;392;48.838;2.322;2023-05-13T05:25:29;15.00;71.90
820;DHT22;392;48.838;2.322;2023-05-13T05:27:56;15.10;67.70
820;DHT22;392;48.838;2.322;2023-05-13T05:30:24;15.20;66.50
820;DHT22;392;48.838;2.322;2023-05-13T05:32:58;15.30;65.50
820;DHT22;392;48.838;2.322;2023-05-13T05:35:26;15.40;63.40
820;DHT22;392;48.838;2.322;2023-05-13T05:37:54;15.50;62.90
820;DHT22;392;48.838;2.322;2023-05-13T05:40:24;15.70;61.70
820;DHT22;392;48.838;2.322;2023-05-13T05:42:52;15.80;60.00
820;DHT22;392;48.838;2.322;2023-05-13T05:45:19;16.00;59.20
820;DHT22;392;48.838;2.322;2023-05-13T05:47:47;16.20;57.30
820;DHT22;392;48.838;2.322;2023-05-13T05:50:15;16.50;54.80
820;DHT22;392;48.838;2.322;2023-05-13T05:52:44;16.70;53.50
820;DHT22;392;48.838;2.322;2023-05-13T05:55:12;17.00;50.40
820;DHT22;392;48.838;2.322;2023-05-13T05:57:42;17.20;49.20
820;DHT22;392;48.838;2.322;2023-05-13T06:00:11;17.40;47.90
820;DHT22;392;48.838;2.322;2023-05-13T06:02:42;17.60;46.00
820;DHT22;392;48.838;2.322;2023-05-13T06:05:11;17.80;43.60
820;DHT22;392;48.838;2.322;2023-05-13T06:07:40;17.90;41.50
820;DHT22;392;48.838;2.322;2023-05-13T06:10:08;17.80;41.20
820;DHT22;392;48.838;2.322;2023-05-13T06:12:36;17.80;41.10
820;DHT22;392;48.838;2.322;2023-05-13T06:15:06;17.80;41.60
820;DHT22;392;48.838;2.322;2023-05-13T06:17:35;17.90;41.30
820;DHT22;392;48.838;2.322;2023-05-13T06:20:05;18.00;40.70
820;DHT22;392;48.838;2.322;2023-05-13T06:22:33;18.20;39.70
820;DHT22;392;48.838;2.322;2023-05-13T06:25:00;18.40;39.00
820;DHT22;392;48.838;2.322;2023-05-13T06:27:27;18.50;37.80
820;DHT22;392;48.838;2.322;2023-05-13T06:29:55;18.40;36.90
820;DHT22;392;48.838;2.322;2023-05-13T06:32:23;18.30;37.60
820;DHT22;392;48.838;2.322;2023-05-13T06:34:50;18.10;37.80
820;DHT22;392;48.838;2.322;2023-05-13T06:37:18;17.80;38.90
820;DHT22;392;48.838;2.322;2023-05-13T06:39:45;17.60;40.00
820;DHT22;392;48.838;2.322;2023-05-13T06:42:13;17.50;40.80
820;DHT22;392;48.838;2.322;2023-05-13T06:44:47;17.20;41.80
820;DHT22;392;48.838;2.322;2023-05-13T06:47:14;17.10;42.90
820;DHT22;392;48.838;2.322;2023-05-13T06:49:43;17.10;44.40
820;DHT22;392;48.838;2.322;2023-05-13T06:52:11;17.30;44.00
820;DHT22;392;48.838;2.322;2023-05-13T06:54:38;17.50;42.40
820;DHT22;392;48.838;2.322;2023-05-13T06:57:05;17.60;40.90
820;DHT22;392;48.838;2.322;2023-05-13T06:59:33;17.70;40.80
820;DHT22;392;48.838;2.322;2023-05-13T07:02:01;17.90;40.30
820;DHT22;392;48.838;2.322;2023-05-13T07:04:29;18.00;39.10
820;DHT22;392;48.838;2.322;2023-05-13T07:06:58;18.00;38.50
820;DHT22;392;48.838;2.322;2023-05-13T07:09:25;18.00;38.70
820;DHT22;392;48.838;2.322;2023-05-13T07:11:53;18.10;38.50
820;DHT22;392;48.838;2.322;2023-05-13T07:14:20;18.10;38.00
820;DHT22;392;48.838;2.322;2023-05-13T07:16:49;18.20;38.40
820;DHT22;392;48.838;2.322;2023-05-13T07:19:17;18.70;37.70
820;DHT22;392;48.838;2.322;2023-05-13T07:21:44;19.20;35.70
820;DHT22;392;48.838;2.322;2023-05-13T07:24:12;19.60;33.60
820;DHT22;392;48.838;2.322;2023-05-13T07:26:40;20.00;31.80
820;DHT22;392;48.838;2.322;2023-05-13T07:29:07;20.40;30.50
820;DHT22;392;48.838;2.322;2023-05-13T07:31:35;20.70;29.30
820;DHT22;392;48.838;2.322;2023-05-13T07:34:02;20.80;28.40
820;DHT22;392;48.838;2.322;2023-05-13T07:36:30;20.70;28.00
820;DHT22;392;48.838;2.322;2023-05-13T07:38:58;20.50;28.60
820;DHT22;392;48.838;2.322;2023-05-13T07:41:28;20.10;29.00
820;DHT22;392;48.838;2.322;2023-05-13T07:43:55;19.70;30.20
820;DHT22;392;48.838;2.322;2023-05-13T07:46:22;19.60;30.90
820;DHT22;392;48.838;2.322;2023-05-13T07:48:50;19.50;31.70
820;DHT22;392;48.838;2.322;2023-05-13T07:51:17;19.60;31.40
820;DHT22;392;48.838;2.322;2023-05-13T07:53:44;19.70;30.80
820;DHT22;392;48.838;2.322;2023-05-13T07:56:12;19.60;31.20
820;DHT22;392;48.838;2.322;2023-05-13T07:58:40;19.60;32.30
820;DHT22;392;48.838;2.322;2023-05-13T08:01:08;19.70;31.30
820;DHT22;392;48.838;2.322;2023-05-13T08:03:35;19.80;30.30
820;DHT22;392;48.838;2.322;2023-05-13T08:06:02;20.00;30.80
820;DHT22;392;48.838;2.322;2023-05-13T08:08:32;20.10;29.70
820;DHT22;392;48.838;2.322;2023-05-13T08:11:00;19.90;29.60
820;DHT22;392;48.838;2.322;2023-05-13T08:13:27;19.60;30.60
820;DHT22;392;48.838;2.322;2023-05-13T08:15:59;19.20;32.20
820;DHT22;392;48.838;2.322;2023-05-13T08:18:27;18.70;34.50
820;DHT22;392;48.838;2.322;2023-05-13T08:20:54;18.60;35.70
820;DHT22;392;48.838;2.322;2023-05-13T08:23:22;18.60;37.50
820;DHT22;392;48.838;2.322;2023-05-13T08:25:50;18.70;36.30
820;DHT22;392;48.838;2.322;2023-05-13T08:28:17;18.90;35.70
820;DHT22;392;48.838;2.322;2023-05-13T08:30:44;19.20;35.10
820;DHT22;392;48.838;2.322;2023-05-13T08:33:13;19.40;33.20
820;DHT22;392;48.838;2.322;2023-05-13T08:35:41;19.80;33.40
820;DHT22;392;48.838;2.322;2023-05-13T08:38:08;20.50;31.70
820;DHT22;392;48.838;2.322;2023-05-13T08:40:35;21.60;28.40
820;DHT22;392;48.838;2.322;2023-05-13T08:43:03;22.30;26.00
820;DHT22;392;48.838;2.322;2023-05-13T08:45:32;22.60;24.80
820;DHT22;392;48.838;2.322;2023-05-13T08:48:01;22.80;24.10
820;DHT22;392;48.838;2.322;2023-05-13T08:50:30;22.70;24.40
820;DHT22;392;48.838;2.322;2023-05-13T08:52:58;22.80;24.80
820;DHT22;392;48.838;2.322;2023-05-13T08:55:26;22.90;23.80
820;DHT22;392;48.838;2.322;2023-05-13T08:57:53;23.00;23.40
820;DHT22;392;48.838;2.322;2023-05-13T09:00:20;22.70;23.00
820;DHT22;392;48.838;2.322;2023-05-13T09:02:48;22.20;23.50
820;DHT22;392;48.838;2.322;2023-05-13T09:05:16;21.70;24.80
820;DHT22;392;48.838;2.322;2023-05-13T09:07:46;21.50;25.50
820;DHT22;392;48.838;2.322;2023-05-13T09:10:14;21.20;25.40
820;DHT22;392;48.838;2.322;2023-05-13T09:12:45;21.00;26.40
820;DHT22;392;48.838;2.322;2023-05-13T09:15:15;20.80;27.30
820;DHT22;392;48.838;2.322;2023-05-13T09:17:46;20.90;27.20
820;DHT22;392;48.838;2.322;2023-05-13T09:20:16;20.90;26.90
820;DHT22;392;48.838;2.322;2023-05-13T09:22:46;20.80;27.10
820;DHT22;392;48.838;2.322;2023-05-13T09:25:15;20.70;27.40
820;DHT22;392;48.838;2.322;2023-05-13T09:27:46;20.80;26.60
820;DHT22;392;48.838;2.322;2023-05-13T09:30:15;20.80;26.50
820;DHT22;392;48.838;2.322;2023-05-13T09:32:43;20.80;26.90
820;DHT22;392;48.838;2.322;2023-05-13T09:35:11;20.60;26.50
820;DHT22;392;48.838;2.322;2023-05-13T09:37:46;20.40;26.90
820;DHT22;392;48.838;2.322;2023-05-13T09:40:15;20.10;27.40
820;DHT22;392;48.838;2.322;2023-05-13T09:42:44;19.80;28.10
820;DHT22;392;48.838;2.322;2023-05-13T09:45:13;19.70;28.60
820;DHT22;392;48.838;2.322;2023-05-13T09:47:43;19.60;29.20
820;DHT22;392;48.838;2.322;2023-05-13T09:50:11;19.40;29.50
820;DHT22;392;48.838;2.322;2023-05-13T09:52:38;19.30;30.40
820;DHT22;392;48.838;2.322;2023-05-13T09:55:09;19.40;30.60
820;DHT22;392;48.838;2.322;2023-05-13T09:57:37;19.60;30.40
820;DHT22;392;48.838;2.322;2023-05-13T10:00:06;19.60;30.30
820;DHT22;392;48.838;2.322;2023-05-13T10:02:37;19.80;30.00
820;DHT22;392;48.838;2.322;2023-05-13T10:05:08;20.00;29.70
820;DHT22;392;48.838;2.322;2023-05-13T10:07:36;20.30;30.30
820;DHT22;392;48.838;2.322;2023-05-13T10:10:06;21.30;27.70
820;DHT22;392;48.838;2.322;2023-05-13T10:12:37;22.60;24.80
820;DHT22;392;48.838;2.322;2023-05-13T10:15:07;24.10;22.40
820;DHT22;392;48.838;2.322;2023-05-13T10:17:35;25.30;20.10
820;DHT22;392;48.838;2.322;2023-05-13T10:20:04;26.50;16.90
820;DHT22;392;48.838;2.322;2023-05-13T10:22:32;27.30;15.00
820;DHT22;392;48.838;2.322;2023-05-13T10:25:01;28.00;14.20
820;DHT22;392;48.838;2.322;2023-05-13T10:27:32;28.30;13.10
820;DHT22;392;48.838;2.322;2023-05-13T10:30:00;28.40;12.80
820;DHT22;392;48.838;2.322;2023-05-13T10:32:30;28.60;12.40
820;DHT22;392;48.838;2.322;2023-05-13T10:35:05;28.50;12.30
820;DHT22;392;48.838;2.322;2023-05-13T10:37:55;28.50;12.30
820;DHT22;392;48.838;2.322;2023-05-13T10:40:54;28.60;12.40
820;DHT22;392;48.838;2.322;2023-05-13T10:43:35;29.20;11.30
820;DHT22;392;48.838;2.322;2023-05-13T10:46:05;29.50;10.30
820;DHT22;392;48.838;2.322;2023-05-13T10:48:40;29.70;10.00
820;DHT22;392;48.838;2.322;2023-05-13T10:51:09;29.60;9.90
820;DHT22;392;48.838;2.322;2023-05-13T10:53:45;29.40;10.40
820;DHT22;392;48.838;2.322;2023-05-13T10:56:14;29.60;10.20
820;DHT22;392;48.838;2.322;2023-05-13T10:58:56;30.00;9.70
820;DHT22;392;48.838;2.322;2023-05-13T11:01:26;30.40;8.80
820;DHT22;392;48.838;2.322;2023-05-13T11:03:56;30.20;9.20
820;DHT22;392;48.838;2.322;2023-05-13T11:06:28;30.20;9.10
820;DHT22;392;48.838;2.322;2023-05-13T11:08:59;30.20;9.10
820;DHT22;392;48.838;2.322;2023-05-13T11:11:31;30.40;8.80
820;DHT22;392;48.838;2.322;2023-05-13T11:14:12;30.50;8.60
820;DHT22;392;48.838;2.322;2023-05-13T11:16:45;31.00;7.60
820;DHT22;392;48.838;2.322;2023-05-13T11:19:25;31.40;6.80
820;DHT22;392;48.838;2.322;2023-05-13T11:21:55;31.60;6.30
820;DHT22;392;48.838;2.322;2023-05-13T11:24:24;31.80;5.70
820;DHT22;392;48.838;2.322;2023-05-13T11:26:53;31.50;6.10
820;DHT22;392;48.838;2.322;2023-05-13T11:29:33;31.60;6.20
820;DHT22;392;48.838;2.322;2023-05-13T11:32:03;32.00;5.10
820;DHT22;392;48.838;2.322;2023-05-13T11:34:32;32.20;5.20
820;DHT22;392;48.838;2.322;2023-05-13T11:37:07;32.30;5.30
820;DHT22;392;48.838;2.322;2023-05-13T11:39:38;32.30;4.70
820;DHT22;392;48.838;2.322;2023-05-13T11:42:07;32.00;5.10
820;DHT22;392;48.838;2.322;2023-05-13T11:44:44;31.70;5.20
820;DHT22;392;48.838;2.322;2023-05-13T11:47:11;31.50;5.90
820;DHT22;392;48.838;2.322;2023-05-13T11:49:40;31.40;6.10
820;DHT22;392;48.838;2.322;2023-05-13T11:52:10;31.60;5.90
820;DHT22;392;48.838;2.322;2023-05-13T11:54:46;31.80;5.50
820;DHT22;392;48.838;2.322;2023-05-13T11:57:21;32.00;5.10
820;DHT22;392;48.838;2.322;2023-05-13T11:59:53;32.30;4.90
820;DHT22;392;48.838;2.322;2023-05-13T12:02:24;32.10;5.20
820;DHT22;392;48.838;2.322;2023-05-13T12:04:52;32.00;5.20
820;DHT22;392;48.838;2.322;2023-05-13T12:07:21;32.40;4.70
820;DHT22;392;48.838;2.322;2023-05-13T12:09:49;32.20;5.20
820;DHT22;392;48.838;2.322;2023-05-13T12:12:18;32.60;4.60
820;DHT22;392;48.838;2.322;2023-05-13T12:14:46;32.90;4.20
820;DHT22;392;48.838;2.322;2023-05-13T12:17:16;33.20;4.90
820;DHT22;392;48.838;2.322;2023-05-13T12:20:06;33.40;3.40
820;DHT22;392;48.838;2.322;2023-05-13T12:22:36;33.30;3.20
820;DHT22;392;48.838;2.322;2023-05-13T12:25:40;33.00;3.80
820;DHT22;392;48.838;2.322;2023-05-13T12:28:11;32.90;4.20
820;DHT22;392;48.838;2.322;2023-05-13T12:30:43;32.90;3.90
820;DHT22;392;48.838;2.322;2023-05-13T12:33:18;32.70;4.00
820;DHT22;392;48.838;2.322;2023-05-13T12:35:47;32.60;4.30
820;DHT22;392;48.838;2.322;2023-05-13T12:38:16;32.20;4.60
820;DHT22;392;48.838;2.322;2023-05-13T12:40:44;32.20;4.40
820;DHT22;392;48.838;2.322;2023-05-13T12:43:12;32.60;3.80
820;DHT22;392;48.838;2.322;2023-05-13T12:45:41;32.20;3.80
820;DHT22;392;48.838;2.322;2023-05-13T12:48:09;31.50;4.80
820;DHT22;392;48.838;2.322;2023-05-13T12:50:38;31.10;5.50
820;DHT22;392;48.838;2.322;2023-05-13T12:53:08;31.00;4.60
820;DHT22;392;48.838;2.322;2023-05-13T12:55:35;31.00;4.60
820;DHT22;392;48.838;2.322;2023-05-13T12:58:06;30.70;4.40
820;DHT22;392;48.838;2.322;2023-05-13T13:00:35;30.00;5.60
820;DHT22;392;48.838;2.322;2023-05-13T13:03:03;29.60;4.90
820;DHT22;392;48.838;2.322;2023-05-13T13:05:30;29.60;5.20
820;DHT22;392;48.838;2.322;2023-05-13T13:07:59;29.80;4.40
820;DHT22;392;48.838;2.322;2023-05-13T13:10:27;29.80;3.90
820;DHT22;392;48.838;2.322;2023-05-13T13:12:54;30.00;4.00
820;DHT22;392;48.838;2.322;2023-05-13T13:15:21;30.10;3.50
820;DHT22;392;48.838;2.322;2023-05-13T13:17:49;30.00;3.30
820;DHT22;392;48.838;2.322;2023-05-13T13:20:16;29.80;3.30
820;DHT22;392;48.838;2.322;2023-05-13T13:22:43;29.70;3.80
820;DHT22;392;48.838;2.322;2023-05-13T13:25:12;29.60;3.80
820;DHT22;392;48.838;2.322;2023-05-13T13:27:40;29.50;3.70
820;DHT22;392;48.838;2.322;2023-05-13T13:30:08;29.20;3.70
820;DHT22;392;48.838;2.322;2023-05-13T13:32:36;29.00;4.00
820;DHT22;392;48.838;2.322;2023-05-13T13:35:03;28.90;3.50
820;DHT22;392;48.838;2.322;2023-05-13T13:37:31;28.60;4.20
820;DHT22;392;48.838;2.322;2023-05-13T13:39:58;28.40;4.90
820;DHT22;392;48.838;2.322;2023-05-13T13:42:27;28.10;5.30
820;DHT22;392;48.838;2.322;2023-05-13T13:44:54;27.80;6.00
820;DHT22;392;48.838;2.322;2023-05-13T13:47:22;27.60;5.90
820;DHT22;392;48.838;2.322;2023-05-13T13:49:49;27.40;6.60
820;DHT22;392;48.838;2.322;2023-05-13T13:52:17;27.20;6.00
820;DHT22;392;48.838;2.322;2023-05-13T13:54:44;27.20;6.30
820;DHT22;392;48.838;2.322;2023-05-13T13:57:13;27.10;6.70
820;DHT22;392;48.838;2.322;2023-05-13T13:59:42;27.10;6.70
820;DHT22;392;48.838;2.322;2023-05-13T14:02:09;27.00;6.20
820;DHT22;392;48.838;2.322;2023-05-13T14:04:37;26.70;6.80
820;DHT22;392;48.838;2.322;2023-05-13T14:07:04;26.50;6.80
820;DHT22;392;48.838;2.322;2023-05-13T14:09:31;26.20;7.30
820;DHT22;392;48.838;2.322;2023-05-13T14:11:59;26.00;7.80
820;DHT22;392;48.838;2.322;2023-05-13T14:14:26;25.80;8.00
820;DHT22;392;48.838;2.322;2023-05-13T14:16:55;25.70;8.30
820;DHT22;392;48.838;2.322;2023-05-13T14:19:22;25.50;7.90
820;DHT22;392;48.838;2.322;2023-05-13T14:21:49;25.40;8.30
820;DHT22;392;48.838;2.322;2023-05-13T14:24:17;25.20;7.70
820;DHT22;392;48.838;2.322;2023-05-13T14:26:44;24.90;8.50
820;DHT22;392;48.838;2.322;2023-05-13T14:29:11;24.70;8.70
820;DHT22;392;48.838;2.322;2023-05-13T14:31:41;24.60;8.50
820;DHT22;392;48.838;2.322;2023-05-13T14:34:10;24.60;8.10
820;DHT22;392;48.838;2.322;2023-05-13T14:36:37;24.60;8.10
820;DHT22;392;48.838;2.322;2023-05-13T14:39:04;24.60;7.40
820;DHT22;392;48.838;2.322;2023-05-13T14:41:33;24.60;7.30
820;DHT22;392;48.838;2.322;2023-05-13T14:44:01;24.50;7.60
820;DHT22;392;48.838;2.322;2023-05-13T14:46:28;24.30;7.80
820;DHT22;392;48.838;2.322;2023-05-13T14:48:55;24.30;8.00
820;DHT22;392;48.838;2.322;2023-05-13T14:51:24;24.20;8.90
820;DHT22;392;48.838;2.322;2023-05-13T14:53:51;23.90;9.30
820;DHT22;392;48.838;2.322;2023-05-13T14:56:19;23.70;9.70
820;DHT22;392;48.838;2.322;2023-05-13T14:58:46;23.50;10.30
820;DHT22;392;48.838;2.322;2023-05-13T15:01:13;23.50;10.60
820;DHT22;392;48.838;2.322;2023-05-13T15:03:40;23.50;11.10
820;DHT22;392;48.838;2.322;2023-05-13T15:06:08;23.50;11.60
820;DHT22;392;48.838;2.322;2023-05-13T15:08:37;23.40;11.50
820;DHT22;392;48.838;2.322;2023-05-13T15:11:04;23.50;11.00
820;DHT22;392;48.838;2.322;2023-05-13T15:13:32;23.50;10.40
820;DHT22;392;48.838;2.322;2023-05-13T15:16:00;23.50;10.20
820;DHT22;392;48.838;2.322;2023-05-13T15:18:28;23.50;10.00
820;DHT22;392;48.838;2.322;2023-05-13T15:20:55;23.50;9.30
820;DHT22;392;48.838;2.322;2023-05-13T15:23:22;23.40;9.60
820;DHT22;392;48.838;2.322;2023-05-13T15:25:51;23.40;9.70
820;DHT22;392;48.838;2.322;2023-05-13T15:28:18;23.30;9.40
820;DHT22;392;48.838;2.322;2023-05-13T15:30:46;23.20;9.30
820;DHT22;392;48.838;2.322;2023-05-13T15:33:13;23.20;10.00
820;DHT22;392;48.838;2.322;2023-05-13T15:35:40;23.20;11.30
820;DHT22;392;48.838;2.322;2023-05-13T15:38:08;23.20;11.30
820;DHT22;392;48.838;2.322;2023-05-13T15:40:36;23.30;11.80
820;DHT22;392;48.838;2.322;2023-05-13T15:43:05;23.30;11.00
820;DHT22;392;48.838;2.322;2023-05-13T15:45:33;23.30;9.80
820;DHT22;392;48.838;2.322;2023-05-13T15:48:01;23.30;10.40
820;DHT22;392;48.838;2.322;2023-05-13T15:50:28;23.30;10.40
820;DHT22;392;48.838;2.322;2023-05-13T15:52:56;23.20;11.70
820;DHT22;392;48.838;2.322;2023-05-13T15:55:23;23.20;12.30
820;DHT22;392;48.838;2.322;2023-05-13T15:57:51;23.30;12.80
820;DHT22;392;48.838;2.322;2023-05-13T16:00:20;23.50;12.10
820;DHT22;392;48.838;2.322;2023-05-13T16:02:47;23.60;11.50
820;DHT22;392;48.838;2.322;2023-05-13T16:05:14;23.50;11.90
820;DHT22;392;48.838;2.322;2023-05-13T16:07:44;23.50;12.20
820;DHT22;392;48.838;2.322;2023-05-13T16:10:11;23.40;12.70
820;DHT22;392;48.838;2.322;2023-05-13T16:12:40;23.30;13.20
820;DHT22;392;48.838;2.322;2023-05-13T16:15:08;23.30;12.70
820;DHT22;392;48.838;2.322;2023-05-13T16:17:37;23.30;12.00
820;DHT22;392;48.838;2.322;2023-05-13T16:20:06;23.20;12.40
820;DHT22;392;48.838;2.322;2023-05-13T16:22:35;23.30;12.80
820;DHT22;392;48.838;2.322;2023-05-13T16:25:05;23.40;13.10
820;DHT22;392;48.838;2.322;2023-05-13T16:27:34;23.50;13.20
820;DHT22;392;48.838;2.322;2023-05-13T16:30:05;23.60;13.30
820;DHT22;392;48.838;2.322;2023-05-13T16:32:34;23.60;13.10
820;DHT22;392;48.838;2.322;2023-05-13T16:35:03;23.60;12.90
820;DHT22;392;48.838;2.322;2023-05-13T16:37:31;23.60;13.50
820;DHT22;392;48.838;2.322;2023-05-13T16:40:00;23.20;11.60
820;DHT22;392;48.838;2.322;2023-05-13T16:42:27;22.30;12.40
820;DHT22;392;48.838;2.322;2023-05-13T16:44:55;21.60;13.50
820;DHT22;392;48.838;2.322;2023-05-13T16:47:22;21.10;14.40
820;DHT22;392;48.838;2.322;2023-05-13T16:49:49;20.70;15.00